createdAt,value
2022-10-05T00:00:00.489Z,1003.18
2022-10-05T00:05:00.567Z,1003.06
2022-10-05T00:10:00.687Z,1003.07
2022-10-05T00:15:00.479Z,1003.09
2022-10-05T00:20:00.493Z,1003.08
2022-10-05T00:25:00.532Z,1003.18
2022-10-05T00:30:00.502Z,1003.11
2022-10-05T00:35:00.491Z,1003.14
2022-10-05T00:40:00.504Z,1003.08
2022-10-05T00:45:00.594Z,1003.05
2022-10-05T00:50:00.473Z,1003.07
2022-10-05T00:55:00.517Z,1003.03
2022-10-05T01:00:00.514Z,1002.95
2022-10-05T01:05:00.495Z,1002.95
2022-10-05T01:10:00.473Z,1002.93
2022-10-05T01:15:00.497Z,1003.04
2022-10-05T01:20:00.071Z,1003.04
2022-10-05T01:25:00.112Z,1003.05
2022-10-05T01:30:00.111Z,1003.17
2022-10-05T01:35:00.477Z,1003.25
2022-10-05T01:40:00.462Z,1003.21
2022-10-05T01:45:00.496Z,1003.02
2022-10-05T01:50:00.488Z,1003
2022-10-05T01:55:00.518Z,1002.95
2022-10-05T02:00:00.115Z,1002.94
2022-10-05T02:05:02.229Z,1002.94
2022-10-05T02:10:00.470Z,1002.97
2022-10-05T02:15:00.642Z,1002.96
2022-10-05T02:20:00.473Z,1003.09
2022-10-05T02:25:00.742Z,1003.1
2022-10-05T02:30:00.491Z,1003.08
2022-10-05T02:35:00.491Z,1002.96
2022-10-05T02:40:00.494Z,1002.98
2022-10-05T02:45:00.523Z,1002.84
2022-10-05T02:50:00.507Z,1002.99
2022-10-05T02:55:00.498Z,1003.04
2022-10-05T03:00:00.504Z,1003.01
2022-10-05T03:05:00.523Z,1003
2022-10-05T03:10:01.345Z,1002.94
2022-10-05T03:15:00.485Z,1002.93
2022-10-05T03:20:00.120Z,1002.69
2022-10-05T03:25:00.116Z,1002.56
2022-10-05T03:30:00.115Z,1002.3
2022-10-05T03:35:00.111Z,1002.31
2022-10-05T03:40:00.090Z,1002.27
2022-10-05T03:45:00.096Z,1002.2
2022-10-05T03:50:00.100Z,1002.13
2022-10-05T03:55:00.087Z,1002.2
2022-10-05T04:00:00.173Z,1002.12
2022-10-05T04:05:00.095Z,1002.06
2022-10-05T04:10:00.098Z,1001.97
2022-10-05T04:15:00.093Z,1002.07
2022-10-05T04:20:00.095Z,1002.03
2022-10-05T04:25:00.109Z,1002.11
2022-10-05T04:30:00.091Z,1002.05
2022-10-05T04:35:00.105Z,1001.96
2022-10-05T04:40:00.083Z,1002.01
2022-10-05T04:45:00.098Z,1001.89
2022-10-05T04:50:00.119Z,1002.03
2022-10-05T04:55:00.083Z,1002.05
2022-10-05T05:00:00.149Z,1002.1
2022-10-05T05:05:00.110Z,1002.09
2022-10-05T05:10:00.075Z,1002.13
2022-10-05T05:15:00.093Z,1002.06
2022-10-05T05:20:00.085Z,1002.09
2022-10-05T05:25:00.105Z,1002.14
2022-10-05T05:30:00.087Z,1002.06
2022-10-05T05:35:00.086Z,1002.02
2022-10-05T05:40:00.094Z,1001.79
2022-10-05T05:45:00.108Z,1001.91
2022-10-05T05:50:05.712Z,1001.89
2022-10-05T05:55:00.083Z,1001.97
2022-10-05T06:00:00.092Z,1001.93
2022-10-05T06:05:00.104Z,1001.88
2022-10-05T06:10:00.102Z,1001.77
2022-10-05T06:15:00.089Z,1001.67
2022-10-05T06:20:04.850Z,1001.57
2022-10-05T06:25:00.116Z,1001.67
2022-10-05T06:30:00.073Z,1001.81
2022-10-05T06:35:00.098Z,1001.82
2022-10-05T06:40:01.182Z,1001.77
2022-10-05T06:45:00.216Z,1001.77
2022-10-05T06:50:00.092Z,1001.84
2022-10-05T06:55:00.100Z,1001.78
2022-10-05T07:00:00.117Z,1001.84
2022-10-05T07:05:00.093Z,1001.93
2022-10-05T07:10:00.094Z,1002.04
2022-10-05T07:15:00.108Z,1002.01
2022-10-05T07:20:00.090Z,1001.96
2022-10-05T07:25:00.117Z,1002.03
2022-10-05T07:30:00.096Z,1001.98
2022-10-05T07:35:00.103Z,1002.08
2022-10-05T07:40:01.268Z,1002.06
2022-10-05T07:45:00.122Z,1002.03
2022-10-05T07:50:00.097Z,1001.93
2022-10-05T07:55:00.085Z,1001.89
2022-10-05T08:00:00.128Z,1001.85
2022-10-05T08:05:00.104Z,1001.84
2022-10-05T08:10:00.106Z,1001.92
2022-10-05T08:15:00.113Z,1001.88
2022-10-05T08:20:00.097Z,1001.75
2022-10-05T08:25:00.215Z,1001.7
2022-10-05T08:30:00.108Z,1001.77
2022-10-05T08:35:00.070Z,1001.73
2022-10-05T08:40:00.096Z,1001.71
2022-10-05T08:45:00.113Z,1001.77
2022-10-05T08:50:00.085Z,1001.73
2022-10-05T08:55:00.111Z,1001.81
2022-10-05T09:00:00.088Z,1001.64
2022-10-05T09:05:00.118Z,1001.63
2022-10-05T09:10:01.807Z,1001.56
2022-10-05T09:15:20.782Z,1001.72
2022-10-05T09:20:00.101Z,1001.57
2022-10-05T09:25:00.129Z,1001.49
2022-10-05T09:30:00.086Z,1001.4
2022-10-05T09:35:00.092Z,1001.38
2022-10-05T09:40:01.404Z,1001.39
2022-10-05T09:45:00.122Z,1001.42
2022-10-05T09:50:00.080Z,1001.45
2022-10-05T09:55:00.089Z,1001.39
2022-10-05T10:00:00.189Z,1001.42
2022-10-05T10:05:00.117Z,1001.37
2022-10-05T10:10:00.095Z,1001.31
2022-10-05T10:15:02.750Z,1001.33
2022-10-05T10:20:00.091Z,1001.31
2022-10-05T10:25:00.102Z,1001.31
2022-10-05T10:30:00.073Z,1001.32
2022-10-05T10:35:00.081Z,1001.24
2022-10-05T10:40:00.099Z,1001.27
2022-10-05T10:45:00.100Z,1001.12
2022-10-05T10:50:00.091Z,1001.12
2022-10-05T10:55:00.077Z,1001.11
2022-10-05T11:00:00.076Z,1001.04
2022-10-05T11:05:00.106Z,1001.09
2022-10-05T11:10:00.118Z,1001.07
2022-10-05T11:15:00.087Z,1001.07
2022-10-05T11:20:03.912Z,1001.04
2022-10-05T11:25:00.105Z,1001.01
2022-10-05T11:30:00.108Z,1000.94
2022-10-05T11:35:00.117Z,1000.95
2022-10-05T11:40:00.095Z,1000.96
2022-10-05T11:45:00.129Z,1000.86
2022-10-05T11:50:00.095Z,1000.83
2022-10-05T11:55:15.365Z,1000.84
2022-10-05T12:00:00.112Z,1000.77
2022-10-05T12:05:00.107Z,1000.65
2022-10-05T12:10:00.114Z,1000.74
2022-10-05T12:15:00.087Z,1000.67
2022-10-05T12:20:00.106Z,1000.61
2022-10-05T12:25:00.100Z,1000.59
2022-10-05T12:30:00.096Z,1000.52
2022-10-05T12:35:01.965Z,1000.55
2022-10-05T12:40:00.088Z,1000.58
2022-10-05T12:45:00.164Z,1000.52
2022-10-05T12:50:00.118Z,1000.5
2022-10-05T12:55:00.082Z,1000.43
2022-10-05T13:00:00.105Z,1000.45
2022-10-05T13:05:00.117Z,1000.46
2022-10-05T13:10:00.092Z,1000.47
2022-10-05T13:15:00.095Z,1000.46
2022-10-05T13:20:00.107Z,1000.47
2022-10-05T13:25:00.103Z,1000.38
2022-10-05T13:30:00.106Z,1000.35
2022-10-05T13:35:00.087Z,1000.17
2022-10-05T13:40:00.201Z,1000.17
2022-10-05T13:45:00.156Z,1000.24
2022-10-05T13:50:00.166Z,1000.13
2022-10-05T13:55:00.097Z,999.99
2022-10-05T14:00:00.229Z,999.94
2022-10-05T14:05:00.134Z,999.97
2022-10-05T14:10:00.206Z,999.97
2022-10-05T14:15:00.105Z,1000.01
2022-10-05T14:20:00.079Z,999.93
2022-10-05T14:25:00.162Z,999.87
2022-10-05T14:30:00.123Z,999.81
2022-10-05T14:35:00.085Z,999.82
2022-10-05T14:40:00.103Z,999.82
2022-10-05T14:45:00.162Z,999.7
2022-10-05T14:50:00.082Z,999.66
2022-10-05T14:55:00.102Z,999.63
2022-10-05T15:00:00.157Z,999.63
2022-10-05T15:05:00.235Z,999.59
2022-10-05T15:10:00.084Z,999.6
2022-10-05T15:15:00.126Z,999.56
2022-10-05T15:20:00.109Z,999.55
2022-10-05T15:25:00.140Z,999.44
2022-10-05T15:30:00.111Z,999.46
2022-10-05T15:35:00.094Z,999.42
2022-10-05T15:40:00.081Z,999.47
2022-10-05T15:45:00.205Z,999.46
2022-10-05T15:50:00.091Z,999.4
2022-10-05T15:55:00.100Z,999.49
2022-10-05T16:00:00.112Z,999.5
2022-10-05T16:05:04.545Z,999.48
2022-10-05T16:10:00.083Z,999.47
2022-10-05T16:15:00.124Z,999.54
2022-10-05T16:20:00.092Z,999.55
2022-10-05T16:25:00.214Z,999.57
2022-10-05T16:30:00.121Z,999.52
2022-10-05T16:35:00.095Z,999.59
2022-10-05T16:40:00.100Z,999.52
2022-10-05T16:45:00.114Z,999.44
2022-10-05T16:50:00.094Z,999.45
2022-10-05T16:55:00.112Z,999.48
2022-10-05T17:00:00.140Z,999.54
2022-10-05T17:05:00.160Z,999.53
2022-10-05T17:10:00.126Z,999.55
2022-10-05T17:15:00.097Z,999.48
2022-10-05T17:20:00.133Z,999.49
2022-10-05T17:25:00.142Z,999.56
2022-10-05T17:30:00.127Z,999.53
2022-10-05T17:35:00.087Z,999.5
2022-10-05T17:40:00.093Z,999.51
2022-10-05T17:45:00.310Z,999.52
2022-10-05T17:50:00.096Z,999.47
2022-10-05T17:55:00.122Z,999.43
2022-10-05T18:00:00.256Z,999.38
2022-10-05T18:05:00.149Z,999.46
2022-10-05T18:10:00.200Z,999.5
2022-10-05T18:15:00.090Z,999.48
2022-10-05T18:20:00.085Z,999.52
2022-10-05T18:25:00.125Z,999.53
2022-10-05T18:30:00.108Z,999.6
2022-10-05T18:35:02.102Z,999.57
2022-10-05T18:40:00.111Z,999.6
2022-10-05T18:45:00.146Z,999.54
2022-10-05T18:50:00.105Z,999.56
2022-10-05T18:55:00.138Z,999.63
2022-10-05T19:00:00.130Z,999.75
2022-10-05T19:05:00.158Z,999.87
2022-10-05T19:10:00.119Z,999.83
2022-10-05T19:15:00.094Z,999.81
2022-10-05T19:20:00.123Z,999.9
2022-10-05T19:25:00.159Z,1000.05
2022-10-05T19:30:00.123Z,1000.17
2022-10-05T19:35:00.133Z,1000.32
2022-10-05T19:40:00.119Z,1000.38
2022-10-05T19:45:00.110Z,1000.48
2022-10-05T19:50:00.113Z,1000.57
2022-10-05T19:55:00.103Z,1000.55
2022-10-05T20:00:00.151Z,1000.56
2022-10-05T20:05:00.103Z,1000.61
2022-10-05T20:10:00.140Z,1000.57
2022-10-05T20:15:00.094Z,1000.61
2022-10-05T20:20:00.094Z,1000.65
2022-10-05T20:25:00.188Z,1000.89
2022-10-05T20:30:00.169Z,1001.21
2022-10-05T20:35:00.141Z,1001.18
2022-10-05T20:40:00.129Z,1001.25
2022-10-05T20:45:00.117Z,1001.25
2022-10-05T20:50:00.091Z,1001.17
2022-10-05T20:55:00.111Z,1001.37
2022-10-05T21:00:00.129Z,1001.46
2022-10-05T21:05:00.254Z,1001.58
2022-10-05T21:10:00.093Z,1001.66
2022-10-05T21:15:00.089Z,1001.76
2022-10-05T21:20:00.089Z,1001.83
2022-10-05T21:25:00.122Z,1001.97
2022-10-05T21:30:00.159Z,1001.97
2022-10-05T21:35:00.096Z,1002.02
2022-10-05T21:40:00.075Z,1002.01
2022-10-05T21:45:00.122Z,1001.98
2022-10-05T21:50:00.075Z,1002.05
2022-10-05T21:55:00.081Z,1002.16
2022-10-05T22:00:00.135Z,1002.26
2022-10-05T22:05:00.108Z,1002.24
2022-10-05T22:10:00.110Z,1002.15
2022-10-05T22:15:00.113Z,1002.24
2022-10-05T22:20:00.095Z,1002.24
2022-10-05T22:25:00.103Z,1002.33
2022-10-05T22:30:00.107Z,1002.27
2022-10-05T22:35:00.105Z,1002.24
2022-10-05T22:40:00.094Z,1002.28
2022-10-05T22:45:00.123Z,1002.27
2022-10-05T22:50:00.100Z,1002.31
2022-10-05T22:55:00.094Z,1002.47
2022-10-05T23:00:00.098Z,1002.39
2022-10-05T23:05:00.119Z,1002.51
2022-10-05T23:10:00.085Z,1002.6
2022-10-05T23:15:00.089Z,1002.67
2022-10-05T23:20:00.114Z,1002.62
2022-10-05T23:25:00.112Z,1002.72
2022-10-05T23:30:00.102Z,1002.6
2022-10-05T23:35:00.107Z,1002.69
2022-10-05T23:40:00.083Z,1002.69
2022-10-05T23:45:00.113Z,1002.73
2022-10-05T23:50:00.098Z,1002.79
2022-10-05T23:55:00.086Z,1002.88
